Time;durP1;ratioP1;P1;durP2;ratioP2;P2;SDS_P1;SDS_P2;PMS_P1;PMS_P2;Temp;Humidity;BMP_temperature;BMP_pressure;BME280_temperature;BME280_humidity;BME280_pressure;Samples;Min_cycle;Max_cycle;Signal;HPM_P1;HPM_P2
2022/08/25 00:01:13;;;;;;;4.73;2.90;;;22.60;57.00;;;;;;5071799;28;20580;-59
2022/08/25 00:03:40;;;;;;;5.80;3.33;;;22.50;55.70;;;;;;5071531;28;20287;-58
2022/08/25 00:06:09;;;;;;;4.90;3.13;;;22.50;55.50;;;;;;5071261;28;20232;-58
2022/08/25 00:08:37;;;;;;;7.73;3.60;;;22.40;54.90;;;;;;5071340;28;20254;-59
2022/08/25 00:11:04;;;;;;;5.10;2.70;;;22.40;55.50;;;;;;5071649;28;20208;-58
2022/08/25 00:13:31;;;;;;;3.63;2.70;;;22.40;54.70;;;;;;5071443;28;20278;-59
2022/08/25 00:15:58;;;;;;;3.60;2.73;;;22.40;55.60;;;;;;5071270;28;20298;-58
2022/08/25 00:18:25;;;;;;;7.23;2.70;;;22.40;54.70;;;;;;5071401;28;20205;-59
2022/08/25 00:20:52;;;;;;;6.57;2.80;;;22.40;55.90;;;;;;5071259;28;20221;-59
2022/08/25 00:23:20;;;;;;;5.33;2.93;;;22.40;55.40;;;;;;5071137;28;20776;-59
2022/08/25 00:25:47;;;;;;;4.37;2.47;;;22.30;54.10;;;;;;5071515;28;20201;-58
2022/08/25 00:28:15;;;;;;;4.17;2.47;;;22.30;54.40;;;;;;5071370;28;20209;-59
2022/08/25 00:30:42;;;;;;;4.93;2.93;;;22.30;54.70;;;;;;5071345;28;20300;-59
2022/08/25 00:33:09;;;;;;;4.97;2.83;;;22.20;54.50;;;;;;5071344;28;20229;-64
2022/08/25 00:35:35;;;;;;;5.57;3.30;;;22.20;55.00;;;;;;5070978;28;20687;-64
2022/08/25 00:38:02;;;;;;;6.73;3.00;;;22.20;75.60;;;;;;5071329;28;20216;-59
2022/08/25 00:40:30;;;;;;;6.93;3.43;;;22.20;56.70;;;;;;5071362;28;20201;-59
2022/08/25 00:42:57;;;;;;;5.30;3.00;;;22.20;57.60;;;;;;5071157;28;20278;-60
2022/08/25 00:45:25;;;;;;;4.40;3.10;;;22.10;57.20;;;;;;5071164;28;20201;-59
2022/08/25 00:47:52;;;;;;;3.23;2.60;;;22.00;56.70;;;;;;5071057;28;20283;-59
2022/08/25 00:50:19;;;;;;;4.17;2.77;;;22.00;56.80;;;;;;5071048;28;20629;-60
2022/08/25 00:52:50;;;;;;;3.10;2.80;;;21.90;55.00;;;;;;5072851;28;20257;-56
2022/08/25 00:55:20;;;;;;;7.53;2.63;;;21.80;54.40;;;;;;5074653;28;20201;-58
2022/08/25 00:57:54;;;;;;;3.37;2.83;;;21.80;53.50;;;;;;5074418;28;20237;-60
2022/08/25 01:00:24;;;;;;;3.27;2.90;;;21.80;55.00;;;;;;5074490;28;20215;-59
2022/08/25 01:02:51;;;;;;;5.47;3.03;;;21.70;55.60;;;;;;5074227;28;20221;-57
2022/08/25 01:05:19;;;;;;;7.17;2.60;;;21.70;56.40;;;;;;5074347;28;20671;-59
2022/08/25 01:07:49;;;;;;;3.93;3.03;;;21.60;57.20;;;;;;5074271;28;20566;-57
2022/08/25 01:10:17;;;;;;;4.43;2.60;;;21.50;58.40;;;;;;5074303;28;20200;-59
2022/08/25 01:12:44;;;;;;;3.37;2.80;;;21.50;79.30;;;;;;5074203;28;20228;-59
2022/08/25 01:15:13;;;;;;;5.13;2.53;;;21.40;60.80;;;;;;5074209;28;20201;-59
2022/08/25 01:17:47;;;;;;;6.10;2.40;;;21.40;59.80;;;;;;5074125;28;20278;-58
2022/08/25 01:20:14;;;;;;;10.33;2.90;;;21.30;59.90;;;;;;5074144;28;20215;-58
2022/08/25 01:22:42;;;;;;;3.57;2.63;;;21.20;57.80;;;;;;5074104;28;20224;-56
2022/08/25 01:25:23;;;;;;;3.03;2.73;;;21.20;58.50;;;;;;5074158;28;20620;-59
2022/08/25 01:27:50;;;;;;;3.43;2.70;;;21.10;57.60;;;;;;5073647;28;20200;-57
2022/08/25 01:30:17;;;;;;;5.10;2.80;;;21.10;57.30;;;;;;5074218;28;20240;-58
2022/08/25 01:32:44;;;;;;;4.33;2.80;;;21.10;58.40;;;;;;5074009;28;20315;-59
2022/08/25 01:35:11;;;;;;;4.10;2.73;;;21.10;57.20;;;;;;5073855;28;20590;-60
2022/08/25 01:37:38;;;;;;;3.97;2.90;;;21.00;57.80;;;;;;5073467;28;20225;-59
2022/08/25 01:40:07;;;;;;;3.30;2.93;;;21.00;56.80;;;;;;5073834;28;20242;-59
2022/08/25 01:42:42;;;;;;;3.87;2.73;;;21.00;56.80;;;;;;5073514;28;20641;-59
2022/08/25 01:45:10;;;;;;;5.27;2.83;;;21.00;56.50;;;;;;5073921;28;20207;-60
2022/08/25 01:47:37;;;;;;;3.33;2.70;;;21.00;57.80;;;;;;5073461;28;20288;-59
2022/08/25 01:50:05;;;;;;;10.50;2.90;;;21.00;56.70;;;;;;5073653;28;20201;-59
2022/08/25 01:52:37;;;;;;;4.10;2.50;;;21.10;56.80;;;;;;5073397;28;20261;-59
2022/08/25 01:55:06;;;;;;;7.87;2.90;;;21.00;58.40;;;;;;5073713;28;20208;-59
2022/08/25 01:57:33;;;;;;;3.23;2.43;;;21.10;58.00;;;;;;5073260;28;20229;-59
2022/08/25 02:00:00;;;;;;;4.83;2.93;;;21.00;57.70;;;;;;5073538;28;20263;-59
2022/08/25 02:02:27;;;;;;;6.33;3.07;;;21.00;57.60;;;;;;5073171;28;20247;-57
2022/08/25 02:04:53;;;;;;;3.80;2.60;;;20.90;57.80;;;;;;5073017;28;20201;-58
2022/08/25 02:07:20;;;;;;;6.57;3.20;;;20.90;59.70;;;;;;5072841;28;20246;-59
2022/08/25 02:09:47;;;;;;;4.47;2.70;;;20.90;61.20;;;;;;5073391;28;20205;-58
2022/08/25 02:12:15;;;;;;;6.07;2.80;;;20.90;60.00;;;;;;5073073;28;20208;-60
2022/08/25 02:14:41;;;;;;;4.50;2.77;;;20.80;60.20;;;;;;5073059;28;20745;-59
2022/08/25 02:17:08;;;;;;;3.47;2.63;;;20.80;60.40;;;;;;5072870;28;20582;-59
2022/08/25 02:19:35;;;;;;;2.90;2.63;;;20.80;62.80;;;;;;5072753;28;20212;-58
2022/08/25 02:22:02;;;;;;;5.67;2.83;;;20.70;64.00;;;;;;5072805;28;20208;-59
2022/08/25 02:24:29;;;;;;;4.07;2.80;;;20.70;62.90;;;;;;5072924;28;20320;-59
2022/08/25 02:26:56;;;;;;;5.97;2.63;;;20.70;62.60;;;;;;5072622;28;20208;-59
2022/08/25 02:29:25;;;;;;;4.30;2.77;;;20.60;64.30;;;;;;5072825;28;20211;-59
2022/08/25 02:31:51;;;;;;;3.90;2.87;;;20.60;64.10;;;;;;5072847;28;20288;-60
2022/08/25 02:34:18;;;;;;;3.97;2.90;;;20.60;64.90;;;;;;5072509;28;20224;-60
2022/08/25 02:36:45;;;;;;;5.13;3.00;;;20.60;63.50;;;;;;5072424;28;20698;-56
2022/08/25 02:39:12;;;;;;;6.63;2.83;;;20.60;62.00;;;;;;5072570;28;20693;-60
2022/08/25 02:41:39;;;;;;;4.83;2.90;;;20.60;61.20;;;;;;5072575;28;20668;-59
2022/08/25 02:44:07;;;;;;;2.83;2.60;;;20.50;61.40;;;;;;5072428;28;20229;-58
2022/08/25 02:46:36;;;;;;;5.47;2.80;;;20.50;60.00;;;;;;5072364;28;20200;-59
2022/08/25 02:49:03;;;;;;;3.87;2.97;;;20.40;68.30;;;;;;5072263;28;20683;-60
2022/08/25 02:51:30;;;;;;;4.03;3.07;;;20.30;59.60;;;;;;5072608;28;20209;-60
2022/08/25 02:53:58;;;;;;;5.30;3.20;;;20.30;64.60;;;;;;5072325;28;20229;-59
2022/08/25 02:56:27;;;;;;;3.70;3.10;;;20.40;69.60;;;;;;5072125;28;20204;-60
2022/08/25 02:58:54;;;;;;;5.40;3.20;;;20.30;68.40;;;;;;5072335;28;20239;-60
2022/08/25 03:01:22;;;;;;;4.03;3.40;;;20.30;66.90;;;;;;5072267;28;20209;-58
2022/08/25 03:03:50;;;;;;;3.47;2.97;;;20.20;67.00;;;;;;5072414;28;20236;-60
2022/08/25 03:06:21;;;;;;;6.53;3.47;;;20.00;70.40;;;;;;5072076;28;20223;-60
2022/08/25 03:08:48;;;;;;;5.77;3.17;;;19.90;71.10;;;;;;5072313;28;20262;-59
2022/08/25 03:11:16;;;;;;;4.70;3.40;;;19.90;71.60;;;;;;5072190;28;20204;-60
2022/08/25 03:13:43;;;;;;;6.73;3.77;;;19.80;77.30;;;;;;5071872;28;20316;-59
2022/08/25 03:16:10;;;;;;;4.33;3.83;;;19.80;85.60;;;;;;5071102;28;20213;-60
2022/08/25 03:18:36;;;;;;;4.50;3.20;;;19.80;90.50;;;;;;5071770;28;20225;-59
2022/08/25 03:21:04;;;;;;;4.63;3.53;;;19.70;94.60;;;;;;5071894;28;20267;-59
2022/08/25 03:23:31;;;;;;;5.67;3.73;;;19.70;99.90;;;;;;5071977;28;20225;-60
2022/08/25 03:28:42;;;;;;;4.70;3.63;;;19.60;99.90;;;;;;5071931;28;20231;-62
2022/08/25 03:31:09;;;;;;;8.10;4.57;;;19.40;99.90;;;;;;5072346;28;20208;-59
2022/08/25 03:33:37;;;;;;;5.67;3.90;;;19.40;99.90;;;;;;5072039;28;20225;-60
2022/08/25 03:36:06;;;;;;;5.03;3.97;;;19.40;99.90;;;;;;5071573;28;20219;-60
2022/08/25 03:38:32;;;;;;;6.47;3.83;;;19.30;99.90;;;;;;5071522;28;20250;-60
2022/08/25 03:40:59;;;;;;;5.70;4.10;;;19.30;99.90;;;;;;5071690;28;20683;-58
2022/08/25 03:43:26;;;;;;;6.20;4.50;;;19.20;99.90;;;;;;5071829;28;20282;-60
2022/08/25 03:45:52;;;;;;;6.63;5.50;;;19.00;99.90;;;;;;5071652;28;20208;-60
2022/08/25 03:48:19;;;;;;;6.70;4.60;;;18.90;99.90;;;;;;5071419;28;20617;-57
2022/08/25 03:50:48;;;;;;;5.83;4.73;;;18.90;99.90;;;;;;5071894;28;20208;-60
2022/08/25 03:53:16;;;;;;;5.83;3.77;;;18.90;99.90;;;;;;5071527;28;20232;-59
2022/08/25 03:55:43;;;;;;;6.87;3.90;;;18.90;99.90;;;;;;5071493;28;20671;-59
2022/08/25 03:58:09;;;;;;;4.40;3.87;;;18.90;99.90;;;;;;5071316;28;20729;-60
2022/08/25 04:00:36;;;;;;;6.67;4.07;;;18.90;99.90;;;;;;5071573;28;20824;-60
2022/08/25 04:03:03;;;;;;;6.90;3.80;;;18.90;99.90;;;;;;5071474;28;20780;-60
2022/08/25 04:05:30;;;;;;;6.77;4.43;;;18.80;99.90;;;;;;5071849;28;20216;-59
2022/08/25 04:07:57;;;;;;;6.80;3.90;;;18.70;99.90;;;;;;5071588;28;20205;-58
2022/08/25 04:10:25;;;;;;;4.53;4.13;;;18.70;99.90;;;;;;5071440;28;20205;-58
2022/08/25 04:12:52;;;;;;;6.50;4.80;;;18.70;99.90;;;;;;5071572;28;20247;-59
2022/08/25 04:15:18;;;;;;;6.93;4.53;;;18.70;99.90;;;;;;5071786;28;20567;-56
2022/08/25 04:17:45;;;;;;;5.30;4.77;;;18.60;99.90;;;;;;5071080;28;20278;-59
2022/08/25 04:20:12;;;;;;;7.20;5.10;;;18.60;99.90;;;;;;5071389;28;20270;-58
2022/08/25 04:22:39;;;;;;;8.67;5.10;;;18.50;99.90;;;;;;5071074;28;20278;-57
2022/08/25 04:25:07;;;;;;;8.23;5.10;;;18.50;99.90;;;;;;5071637;28;20209;-56
2022/08/25 04:27:36;;;;;;;9.43;4.77;;;18.50;99.90;;;;;;5074409;28;20205;-58
2022/08/25 04:30:03;;;;;;;6.70;5.57;;;18.50;99.90;;;;;;5075178;28;20278;-56
2022/08/25 04:32:31;;;;;;;8.17;5.30;;;18.50;99.90;;;;;;5074849;28;20205;-58
2022/08/25 04:34:57;;;;;;;8.77;5.53;;;18.40;99.90;;;;;;5075045;28;20295;-59
2022/08/25 04:37:24;;;;;;;6.97;5.10;;;18.40;99.90;;;;;;5074690;28;20221;-58
2022/08/25 04:39:51;;;;;;;7.17;5.00;;;18.40;99.90;;;;;;5075061;28;20205;-59
2022/08/25 04:42:17;;;;;;;7.00;5.30;;;18.40;99.90;;;;;;5074937;28;20250;-57
2022/08/25 04:44:46;;;;;;;6.57;5.23;;;18.40;99.90;;;;;;5074758;28;20255;-59
2022/08/25 04:47:12;;;;;;;7.73;5.37;;;18.40;99.90;;;;;;5074651;28;20205;-58
2022/08/25 04:49:39;;;;;;;7.37;5.70;;;18.40;99.90;;;;;;5074680;28;20208;-59
2022/08/25 04:52:06;;;;;;;7.77;5.63;;;18.40;99.90;;;;;;5074464;28;20209;-58
2022/08/25 04:54:32;;;;;;;6.43;5.07;;;18.40;99.90;;;;;;5074721;28;20707;-58
2022/08/25 04:56:59;;;;;;;7.03;5.07;;;18.40;99.90;;;;;;5074387;28;20695;-58
2022/08/25 04:59:26;;;;;;;8.03;4.70;;;18.40;99.90;;;;;;5074540;28;20205;-58
2022/08/25 05:01:56;;;;;;;25.20;15.13;;;18.40;99.90;;;;;;5074682;28;20259;-59
2022/08/25 05:04:22;;;;;;;37.17;24.93;;;18.40;99.90;;;;;;5074239;28;20231;-59
2022/08/25 05:06:50;;;;;;;8.57;6.03;;;18.40;99.90;;;;;;5074389;28;20311;-59
2022/08/25 05:09:16;;;;;;;9.20;5.70;;;18.40;99.90;;;;;;5074482;28;20205;-58
2022/08/25 05:11:43;;;;;;;10.90;7.63;;;18.30;99.90;;;;;;5074540;28;20205;-58
2022/08/25 05:14:13;;;;;;;12.00;7.67;;;18.30;99.90;;;;;;5074165;28;20231;-57
2022/08/25 05:16:40;;;;;;;8.53;6.17;;;18.30;99.90;;;;;;5074293;28;20208;-59
2022/08/25 05:19:08;;;;;;;9.77;6.73;;;18.30;99.90;;;;;;5073971;28;20366;-59
2022/08/25 05:21:35;;;;;;;9.53;6.90;;;18.40;99.90;;;;;;5074111;28;20699;-60
2022/08/25 05:24:03;;;;;;;9.40;6.43;;;18.40;99.90;;;;;;5074207;28;20229;-56
2022/08/25 05:26:31;;;;;;;8.23;6.07;;;18.40;99.90;;;;;;5073949;28;20208;-58
2022/08/25 05:29:00;;;;;;;7.23;5.93;;;18.40;99.90;;;;;;5073876;28;20255;-56
2022/08/25 05:31:28;;;;;;;7.63;6.33;;;18.50;99.90;;;;;;5073842;28;20209;-59
2022/08/25 05:33:55;;;;;;;10.10;6.60;;;18.60;1.00;;;;;;5074125;28;20227;-60
2022/08/25 05:36:26;;;;;;;7.93;5.80;;;18.60;1.00;;;;;;5073506;28;20235;-60
2022/08/25 05:38:53;;;;;;;6.53;5.37;;;18.70;1.00;;;;;;5073116;28;20274;-59
2022/08/25 05:41:26;;;;;;;7.63;5.90;;;18.80;1.00;;;;;;5073556;28;20209;-59
2022/08/25 05:43:53;;;;;;;10.70;5.70;;;19.00;1.00;;;;;;5073523;28;20225;-59
2022/08/25 05:46:21;;;;;;;8.00;5.40;;;19.30;1.00;;;;;;5073806;28;20209;-57
2022/08/25 05:48:48;;;;;;;5.33;4.83;;;19.40;99.90;;;;;;5073934;28;20205;-57
2022/08/25 05:51:15;;;;;;;6.30;5.03;;;19.50;99.90;;;;;;5073775;28;20288;-58
2022/08/25 05:53:45;;;;;;;7.73;5.10;;;19.60;99.90;;;;;;5073558;28;20225;-59
2022/08/25 05:56:13;;;;;;;6.73;4.70;;;19.60;99.90;;;;;;5073245;28;20561;-57
2022/08/25 05:58:41;;;;;;;9.63;4.70;;;19.70;99.90;;;;;;5073192;28;20259;-58
2022/08/25 06:03:52;;;;;;;6.60;4.80;;;19.90;99.90;;;;;;5073378;28;20224;-60
2022/08/25 06:06:20;;;;;;;7.07;4.43;;;20.00;99.90;;;;;;5073111;28;20205;-59
2022/08/25 06:08:48;;;;;;;5.73;4.03;;;20.10;99.90;;;;;;5073221;28;20254;-60
2022/08/25 06:11:15;;;;;;;6.10;4.70;;;20.20;99.90;;;;;;5073118;28;20213;-60
2022/08/25 06:13:42;;;;;;;6.20;4.50;;;20.20;99.90;;;;;;5072898;28;20725;-60
2022/08/25 06:16:10;;;;;;;8.73;5.60;;;20.30;99.90;;;;;;5072910;28;20227;-60
2022/08/25 06:18:36;;;;;;;9.33;6.20;;;20.40;99.90;;;;;;5073097;28;20282;-60
2022/08/25 06:21:08;;;;;;;6.23;4.40;;;20.40;99.90;;;;;;5073110;28;20722;-60
2022/08/25 06:23:37;;;;;;;5.57;4.27;;;20.40;99.90;;;;;;5072728;28;20745;-60
2022/08/25 06:26:06;;;;;;;8.97;4.17;;;20.50;99.90;;;;;;5072886;28;20212;-60
2022/08/25 06:28:32;;;;;;;5.17;4.30;;;20.50;99.90;;;;;;5072969;28;20570;-60
2022/08/25 06:31:00;;;;;;;6.33;4.67;;;20.60;99.90;;;;;;5073008;28;20250;-59
2022/08/25 06:33:27;;;;;;;8.07;4.17;;;20.60;99.90;;;;;;5072693;28;20282;-60
2022/08/25 06:35:55;;;;;;;9.70;4.10;;;20.70;99.90;;;;;;5072649;28;20741;-60
2022/08/25 06:38:21;;;;;;;8.17;4.37;;;20.80;99.90;;;;;;5072565;28;20602;-59
2022/08/25 06:40:48;;;;;;;7.33;4.27;;;20.80;99.90;;;;;;5072779;28;20264;-58
2022/08/25 06:43:16;;;;;;;6.70;4.53;;;20.90;99.90;;;;;;5072477;28;20234;-57
2022/08/25 06:45:43;;;;;;;7.23;4.40;;;20.90;99.90;;;;;;5072595;28;20254;-59
2022/08/25 06:48:10;;;;;;;8.67;4.90;;;21.00;99.90;;;;;;5072397;28;20227;-57
2022/08/25 06:50:39;;;;;;;6.70;4.23;;;21.10;99.90;;;;;;5071457;28;20205;-59
2022/08/25 06:53:06;;;;;;;5.10;3.90;;;21.20;99.90;;;;;;5072392;28;20227;-60
2022/08/25 06:55:33;;;;;;;8.13;5.13;;;21.30;99.90;;;;;;5072518;28;20208;-60
2022/08/25 06:58:02;;;;;;;6.60;3.93;;;21.40;99.90;;;;;;5071985;28;20223;-60
2022/08/25 07:00:30;;;;;;;7.73;4.23;;;21.50;99.90;;;;;;5072374;28;20212;-60
2022/08/25 07:02:57;;;;;;;8.13;4.50;;;21.60;99.90;;;;;;5072172;28;20225;-55
2022/08/25 07:05:24;;;;;;;7.77;4.37;;;21.70;99.90;;;;;;5072334;28;20299;-63
2022/08/25 07:07:50;;;;;;;11.17;4.67;;;21.80;99.90;;;;;;5072063;28;20254;-60
2022/08/25 07:10:18;;;;;;;7.37;4.07;;;21.90;99.90;;;;;;5072173;28;20295;-60
2022/08/25 07:12:44;;;;;;;5.60;4.20;;;22.00;99.90;;;;;;5072048;28;20228;-59
2022/08/25 07:15:11;;;;;;;7.30;4.00;;;22.10;99.90;;;;;;5071859;28;20251;-59
2022/08/25 07:17:39;;;;;;;9.50;4.37;;;22.20;99.90;;;;;;5071701;28;20258;-61
2022/08/25 07:20:06;;;;;;;12.50;7.90;;;22.30;99.90;;;;;;5072014;28;20239;-59
2022/08/25 07:22:33;;;;;;;8.63;5.00;;;22.40;99.90;;;;;;5072098;28;20221;-61
2022/08/25 07:25:00;;;;;;;7.93;4.30;;;22.50;99.90;;;;;;5072406;28;20210;-62
2022/08/25 07:27:26;;;;;;;4.70;3.93;;;22.60;99.90;;;;;;5071915;28;20254;-62
2022/08/25 07:29:53;;;;;;;6.40;4.40;;;22.80;99.90;;;;;;5072008;28;20212;-62
2022/08/25 07:32:20;;;;;;;7.47;4.20;;;22.90;99.90;;;;;;5071860;28;20236;-61
2022/08/25 07:37:32;;;;;;;5.30;4.13;;;23.20;99.90;;;;;;5071719;28;20212;-60
2022/08/25 07:40:02;;;;;;;8.80;4.83;;;23.40;99.90;;;;;;5072007;28;20224;-60
2022/08/25 07:42:29;;;;;;;5.33;4.20;;;23.60;99.90;;;;;;5071770;28;20216;-61
2022/08/25 07:44:55;;;;;;;7.67;4.70;;;23.70;99.90;;;;;;5071622;28;20220;-61
2022/08/25 07:47:22;;;;;;;6.70;4.60;;;23.90;99.90;;;;;;5071666;28;20235;-61
2022/08/25 07:49:51;;;;;;;6.33;4.93;;;24.00;99.90;;;;;;5071832;28;20205;-60
2022/08/25 07:52:18;;;;;;;6.63;4.27;;;24.10;99.90;;;;;;5071503;28;20588;-61
2022/08/25 07:54:45;;;;;;;8.63;4.70;;;24.30;99.90;;;;;;5071636;28;20216;-61
2022/08/25 07:57:11;;;;;;;6.20;4.10;;;24.50;99.90;;;;;;5071370;28;20209;-60
2022/08/25 07:59:40;;;;;;;6.70;4.27;;;24.60;99.90;;;;;;5071340;28;20229;-60
2022/08/25 08:02:08;;;;;;;7.07;4.20;;;24.70;99.90;;;;;;5074380;28;20258;-61
2022/08/25 08:04:36;;;;;;;6.10;4.33;;;24.80;99.90;;;;;;5075746;28;20228;-61
2022/08/25 08:07:05;;;;;;;9.10;5.10;;;25.00;99.90;;;;;;5075604;28;20204;-61
2022/08/25 08:09:32;;;;;;;6.80;4.67;;;25.00;99.90;;;;;;5075534;28;20201;-61
2022/08/25 08:11:59;;;;;;;6.60;4.00;;;25.20;99.90;;;;;;5075566;28;20234;-61
2022/08/25 08:14:26;;;;;;;6.03;3.77;;;25.30;99.90;;;;;;5075504;28;20225;-59
2022/08/25 08:16:52;;;;;;;6.97;4.53;;;25.50;99.90;;;;;;5075447;28;20288;-60
2022/08/25 08:19:19;;;;;;;7.27;4.50;;;25.50;99.90;;;;;;5075374;28;20332;-60
2022/08/25 08:21:47;;;;;;;8.50;4.60;;;25.60;99.90;;;;;;5075214;28;20620;-58
2022/08/25 08:24:15;;;;;;;6.57;4.17;;;25.70;99.90;;;;;;5075324;28;20220;-61
2022/08/25 08:26:42;;;;;;;6.90;4.43;;;25.70;99.90;;;;;;5074922;28;20205;-59
2022/08/25 08:29:09;;;;;;;8.53;4.80;;;25.90;99.90;;;;;;5075414;28;20201;-61
2022/08/25 08:31:35;;;;;;;6.17;4.40;;;26.00;99.90;;;;;;5075473;28;20213;-60
2022/08/25 08:34:02;;;;;;;7.77;4.97;;;26.00;99.90;;;;;;5075538;28;20237;-61
2022/08/25 08:36:29;;;;;;;5.27;4.57;;;26.10;99.90;;;;;;5074919;28;20209;-61
2022/08/25 08:38:55;;;;;;;9.20;4.63;;;26.20;99.90;;;;;;5074829;28;20278;-62
2022/08/25 08:44:41;;;;;;;7.40;4.20;;;26.40;99.90;;;;;;5074968;28;20254;-60
2022/08/25 08:47:15;;;;;;;6.23;4.30;;;26.50;99.90;;;;;;5074901;28;20208;-60
2022/08/25 08:49:49;;;;;;;5.73;4.53;;;26.60;99.90;;;;;;5075343;28;20197;-61
2022/08/25 08:52:19;;;;;;;7.17;4.73;;;26.60;99.90;;;;;;5074560;28;20213;-61
2022/08/25 08:54:48;;;;;;;7.20;4.53;;;26.70;99.90;;;;;;5074706;28;20263;-60
2022/08/25 08:57:22;;;;;;;9.33;4.50;;;26.70;99.90;;;;;;5069753;28;20401;-61
2022/08/25 08:59:53;;;;;;;9.90;4.67;;;26.90;99.90;;;;;;5067731;28;20247;-59
2022/08/25 09:02:27;;;;;;;7.23;4.20;;;27.00;99.90;;;;;;5073678;28;20212;-59
2022/08/25 09:04:57;;;;;;;6.57;4.80;;;27.00;99.90;;;;;;5074331;28;20209;-63
2022/08/25 09:07:29;;;;;;;7.97;4.57;;;27.00;99.90;;;;;;5073833;28;20224;-60
2022/08/25 09:09:56;;;;;;;8.07;4.17;;;27.20;99.90;;;;;;5073811;28;20278;-64
2022/08/25 09:12:32;;;;;;;7.33;4.00;;;27.30;99.90;;;;;;5072971;28;20255;-61
2022/08/25 09:15:09;;;;;;;6.47;4.90;;;27.30;99.90;;;;;;5074010;28;20235;-59
2022/08/25 09:17:50;;;;;;;4.70;4.17;;;27.30;99.90;;;;;;5073695;28;20269;-62
2022/08/25 09:20:37;;;;;;;7.60;4.83;;;27.40;99.90;;;;;;5070176;28;20279;-63
2022/08/25 09:23:15;;;;;;;5.87;4.50;;;27.60;99.90;;;;;;5073661;28;20293;-61
2022/08/25 09:25:48;;;;;;;6.40;4.30;;;27.50;99.90;;;;;;5073884;28;20632;-60
2022/08/25 09:28:20;;;;;;;6.60;4.67;;;27.70;99.90;;;;;;5073344;28;20270;-61
2022/08/25 09:30:53;;;;;;;15.23;4.73;;;27.80;99.90;;;;;;5073387;28;20205;-60
2022/08/25 09:33:24;;;;;;;6.67;4.30;;;28.00;99.90;;;;;;5073374;28;20236;-59
2022/08/25 09:35:52;;;;;;;10.60;4.60;;;28.10;99.90;;;;;;5073458;28;20209;-62
2022/08/25 09:38:19;;;;;;;8.03;4.30;;;28.20;99.90;;;;;;5073344;28;20263;-61
2022/08/25 09:40:48;;;;;;;5.97;4.20;;;28.20;99.90;;;;;;5073110;28;20208;-60
2022/08/25 09:43:23;;;;;;;5.93;4.47;;;28.20;99.90;;;;;;5073189;28;20225;-62
2022/08/25 09:45:57;;;;;;;5.87;4.33;;;28.20;99.90;;;;;;5073042;28;20660;-62
2022/08/25 09:48:26;;;;;;;6.90;4.07;;;28.30;99.90;;;;;;5073525;28;20634;-57
2022/08/25 09:50:58;;;;;;;4.67;4.17;;;28.30;99.90;;;;;;5065805;28;20217;-62
2022/08/25 09:53:25;;;;;;;6.30;4.60;;;28.30;99.90;;;;;;5073022;28;20229;-62
2022/08/25 09:55:59;;;;;;;7.47;4.97;;;28.50;99.90;;;;;;5073172;28;20223;-57
2022/08/25 09:58:27;;;;;;;7.23;4.93;;;28.30;99.90;;;;;;5072632;28;20262;-61
2022/08/25 10:01:03;;;;;;;9.27;4.90;;;28.30;99.90;;;;;;5073061;28;20205;-62
2022/08/25 10:03:31;;;;;;;5.83;4.40;;;28.40;99.90;;;;;;5071889;28;20315;-62
2022/08/25 10:06:02;;;;;;;5.73;4.57;;;28.50;99.90;;;;;;5070943;28;20581;-62
2022/08/25 10:08:33;;;;;;;7.13;4.80;;;28.50;99.90;;;;;;5072616;28;20209;-62
2022/08/25 10:11:03;;;;;;;8.30;4.83;;;28.60;99.90;;;;;;5072928;28;20213;-60
2022/08/25 10:13:40;;;;;;;8.10;4.37;;;28.50;99.90;;;;;;5072694;28;20229;-63
2022/08/25 10:16:11;;;;;;;7.40;4.27;;;28.60;99.90;;;;;;5072561;28;20216;-60
2022/08/25 10:18:40;;;;;;;9.17;4.93;;;28.70;99.90;;;;;;5072506;28;20208;-64
2022/08/25 10:21:13;;;;;;;11.43;4.50;;;28.90;99.90;;;;;;5072406;28;20259;-65
2022/08/25 10:23:44;;;;;;;5.80;4.47;;;29.10;99.90;;;;;;5072304;28;20229;-65
2022/08/25 10:26:22;;;;;;;6.47;4.33;;;29.20;99.90;;;;;;5072471;28;20204;-64
2022/08/25 10:29:06;;;;;;;6.07;4.23;;;29.20;99.90;;;;;;5072184;28;20204;-65
2022/08/25 10:31:36;;;;;;;5.33;4.43;;;29.30;99.90;;;;;;5072361;28;20216;-62
2022/08/25 10:34:19;;;;;;;6.07;4.40;;;29.30;99.90;;;;;;5072424;28;20229;-61
2022/08/25 10:36:56;;;;;;;7.90;4.10;;;29.40;99.90;;;;;;5070717;28;20213;-61
2022/08/25 10:39:36;;;;;;;4.23;3.20;;;29.50;99.90;;;;;;5071123;28;20220;-61
2022/08/25 10:42:23;;;;;;;4.30;3.57;;;29.20;99.90;;;;;;5071922;28;20667;-65
2022/08/25 10:48:22;;;;;;;4.20;3.73;;;29.20;99.90;;;;;;5072001;28;20208;-62
2022/08/25 10:50:54;;;;;;;8.13;3.63;;;29.30;99.90;;;;;;5071658;28;20549;-62
2022/08/25 10:53:27;;;;;;;4.83;3.77;;;29.40;99.90;;;;;;5072179;28;20225;-63
2022/08/25 10:56:06;;;;;;;6.70;3.40;;;29.50;99.90;;;;;;5071739;28;20209;-62
2022/08/25 10:58:49;;;;;;;5.00;3.83;;;29.50;99.90;;;;;;5071932;28;20204;-62
2022/08/25 11:01:26;;;;;;;5.87;3.87;;;29.40;99.90;;;;;;5068932;28;20208;-63
2022/08/25 11:03:59;;;;;;;4.73;3.50;;;29.50;99.90;;;;;;5071259;28;20224;-64
2022/08/25 11:06:32;;;;;;;4.43;3.60;;;29.50;99.90;;;;;;5071879;28;20407;-63
2022/08/25 11:09:03;;;;;;;4.90;3.67;;;29.70;99.90;;;;;;5071697;28;20258;-63
2022/08/25 11:11:36;;;;;;;4.43;4.00;;;29.80;99.90;;;;;;5072462;28;20205;-62
2022/08/25 11:14:06;;;;;;;5.25;3.78;;;30.00;99.90;;;;;;5071812;28;20282;-62
2022/08/25 11:16:39;;;;;;;7.40;3.53;;;30.10;99.90;;;;;;5071685;28;20270;-63
2022/08/25 11:19:13;;;;;;;5.15;3.90;;;30.10;99.90;;;;;;5071013;28;20220;-63
2022/08/25 11:21:48;;;;;;;5.38;3.33;;;30.20;99.90;;;;;;5071383;28;20815;-65
2022/08/25 11:24:32;;;;;;;6.90;3.28;;;30.30;99.90;;;;;;5071599;28;20266;-63
2022/08/25 11:26:59;;;;;;;5.25;3.45;;;30.20;99.90;;;;;;5071436;28;20216;-65
2022/08/25 11:29:32;;;;;;;3.95;3.50;;;30.20;99.90;;;;;;5071362;28;20259;-63
2022/08/25 11:32:00;;;;;;;4.95;3.30;;;30.40;99.90;;;;;;5071448;28;20205;-62
2022/08/25 11:34:31;;;;;;;4.40;3.28;;;30.40;99.90;;;;;;5071525;28;20264;-62
2022/08/25 11:37:06;;;;;;;5.07;3.58;;;30.50;99.90;;;;;;5070948;28;20213;-62
2022/08/25 11:39:45;;;;;;;8.25;3.50;;;30.60;99.90;;;;;;5071087;28;20220;-62
2022/08/25 11:42:25;;;;;;;4.50;3.50;;;30.70;99.90;;;;;;5071549;28;20262;-60
2022/08/25 11:45:00;;;;;;;4.05;3.58;;;30.70;99.90;;;;;;5071265;28;20667;-60
2022/08/25 11:47:47;;;;;;;6.20;3.60;;;30.70;99.90;;;;;;5071499;28;20208;-60
2022/08/25 11:50:27;;;;;;;4.38;3.42;;;30.40;99.90;;;;;;5071351;28;20204;-60
2022/08/25 11:52:56;;;;;;;5.32;3.42;;;30.40;99.90;;;;;;5071338;28;20232;-60
2022/08/25 11:55:32;;;;;;;4.82;3.38;;;30.40;99.90;;;;;;5071501;28;20262;-60
2022/08/25 11:58:26;;;;;;;3.88;3.10;;;30.50;99.90;;;;;;5070948;28;20254;-60
2022/08/25 12:00:54;;;;;;;5.07;3.35;;;30.30;99.90;;;;;;5071009;28;20221;-60
2022/08/25 12:03:49;;;;;;;4.30;3.28;;;30.30;99.90;;;;;;5071423;28;20224;-58
2022/08/25 12:06:21;;;;;;;5.35;3.20;;;30.40;99.90;;;;;;5070900;28;20212;-59
2022/08/25 12:08:54;;;;;;;4.97;3.35;;;30.60;99.90;;;;;;5071013;28;20211;-59
2022/08/25 12:11:45;;;;;;;6.40;3.45;;;30.60;99.90;;;;;;5071109;28;20258;-58
2022/08/25 12:14:32;;;;;;;8.15;3.67;;;30.70;99.90;;;;;;5071018;28;20270;-57
2022/08/25 12:17:16;;;;;;;6.13;3.40;;;30.70;99.90;;;;;;5070992;28;20212;-57
2022/08/25 12:19:53;;;;;;;4.88;3.28;;;30.70;99.90;;;;;;5070498;28;20734;-57
2022/08/25 12:22:43;;;;;;;5.45;3.50;;;30.70;99.90;;;;;;5070983;28;20261;-57
2022/08/25 12:25:20;;;;;;;5.68;3.65;;;30.80;99.90;;;;;;5071068;28;20209;-59
2022/08/25 12:27:58;;;;;;;8.10;3.40;;;30.80;99.90;;;;;;5070085;28;20695;-56
2022/08/25 12:30:32;;;;;;;3.58;3.05;;;30.90;99.90;;;;;;5069456;28;20228;-59
2022/08/25 12:33:07;;;;;;;4.53;3.38;;;31.00;99.90;;;;;;5070976;28;20321;-57
2022/08/25 12:35:55;;;;;;;6.10;3.50;;;30.80;99.90;;;;;;5070761;28;20234;-60
2022/08/25 12:38:30;;;;;;;5.95;3.45;;;30.80;99.90;;;;;;5070792;28;20255;-59
2022/08/25 12:41:01;;;;;;;4.50;3.40;;;30.90;99.90;;;;;;5070726;28;20232;-60
2022/08/25 12:43:31;;;;;;;4.82;3.00;;;30.90;99.90;;;;;;5066541;28;20252;-60
2022/08/25 12:46:31;;;;;;;7.68;3.38;;;31.00;99.90;;;;;;5064005;28;20254;-59
2022/08/25 12:49:00;;;;;;;6.15;3.70;;;31.20;99.90;;;;;;5074197;28;20274;-60
2022/08/25 12:51:44;;;;;;;4.82;3.50;;;31.10;99.90;;;;;;5074171;28;20254;-60
2022/08/25 12:54:16;;;;;;;4.10;3.47;;;31.20;99.90;;;;;;5074269;28;20229;-62
2022/08/25 12:56:47;;;;;;;7.20;3.67;;;31.30;99.90;;;;;;5074078;28;20655;-64
2022/08/25 12:59:17;;;;;;;4.50;3.08;;;31.30;99.90;;;;;;5074149;28;20557;-62
2022/08/25 13:02:01;;;;;;;4.72;3.30;;;31.30;99.90;;;;;;5073802;28;20233;-63
2022/08/25 13:05:01;;;;;;;5.28;3.63;;;31.20;99.90;;;;;;5074278;28;20229;-62
2022/08/25 13:07:46;;;;;;;4.32;3.15;;;31.20;99.90;;;;;;5073922;28;20204;-62
2022/08/25 13:10:25;;;;;;;6.25;3.75;;;31.10;99.90;;;;;;5074081;28;20208;-62
2022/08/25 13:13:00;;;;;;;6.97;4.03;;;31.30;99.90;;;;;;5073922;28;20224;-62
2022/08/25 13:15:36;;;;;;;5.00;3.55;;;31.20;99.90;;;;;;5072294;28;20269;-63